Time;durP1;ratioP1;P1;durP2;ratioP2;P2;SDS_P1;SDS_P2;PMS_P1;PMS_P2;Temp;Humidity;BMP_temperature;BMP_pressure;BME280_temperature;BME280_humidity;BME280_pressure;Samples;Min_cycle;Max_cycle;Signal;HPM_P1;HPM_P2
2022/05/06 00:00:06;;;;;;;;;;;;;;;13.90;90.21;100210.69;6122087;23;19913;-91
2022/05/06 00:02:31;;;;;;;;;;;;;;;13.88;90.33;100202.78;6122083;23;19913;-91
2022/05/06 00:04:56;;;;;;;;;;;;;;;13.78;91.23;100206.75;6122114;23;19913;-92
2022/05/06 00:07:22;;;;;;;;;;;;;;;13.83;91.01;100214.50;6097249;23;19919;-92
2022/05/06 00:09:47;;;;;;;;;;;;;;;13.85;91.66;100214.06;6122183;23;19919;-90
2022/05/06 00:12:13;;;;;;;;;;;;;;;13.83;90.71;100211.72;6122508;23;19913;-90
2022/05/06 00:14:39;;;;;;;;;;;;;;;13.82;91.24;100207.41;6120950;23;20244;-86
2022/05/06 00:17:05;;;;;;;;;;;;;;;13.85;90.21;100209.28;6097322;23;19916;-85
2022/05/06 00:19:30;;;;;;;;;;;;;;;13.83;91.25;100211.72;6072969;23;19917;-85
2022/05/06 00:21:56;;;;;;;;;;;;;;;13.75;91.57;100207.63;6120544;23;20347;-85
2022/05/06 00:24:21;;;;;;;;;;;;;;;13.65;92.45;100206.03;6121941;23;19908;-86
2022/05/06 00:26:47;;;;;;;;;;;;;;;13.63;93.01;100202.16;6096617;23;19913;-85
2022/05/06 00:29:13;;;;;;;;;;;;;;;13.59;92.77;100207.84;6095846;23;19916;-85
2022/05/06 00:31:39;;;;;;;;;;;;;;;13.59;93.25;100198.72;6122175;23;19980;-90
2022/05/06 00:34:06;;;;;;;;;;;;;;;13.48;94.62;100201.88;6097115;23;19913;-91
2022/05/06 00:36:32;;;;;;;;;;;;;;;13.35;95.34;100203.94;6121763;23;19913;-91
2022/05/06 00:38:58;;;;;;;;;;;;;;;13.37;94.87;100196.69;6121683;23;19936;-90
2022/05/06 00:41:23;;;;;;;;;;;;;;;13.44;93.50;100204.78;6073099;23;19967;-90
2022/05/06 00:43:49;;;;;;;;;;;;;;;13.42;93.80;100198.91;6121536;23;20414;-91
2022/05/06 00:46:15;;;;;;;;;;;;;;;13.39;93.63;100204.59;6098483;23;19913;-90
2022/05/06 00:48:41;;;;;;;;;;;;;;;13.41;93.93;100197.34;6096627;23;19908;-90
2022/05/06 00:51:08;;;;;;;;;;;;;;;13.46;93.53;100199.56;6097008;23;19992;-90
2022/05/06 00:53:35;;;;;;;;;;;;;;;13.49;93.04;100203.44;6074213;23;19920;-90
2022/05/06 00:56:00;;;;;;;;;;;;;;;13.50;92.99;100200.22;6120640;23;19917;-90
2022/05/06 00:58:29;;;;;;;;;;;;;;;13.57;92.79;100198.38;6071516;23;19930;-89
2022/05/06 01:00:54;;;;;;;;;;;;;;;13.59;92.05;100199.47;6122047;23;19913;-90
2022/05/06 01:03:20;;;;;;;;;;;;;;;13.63;91.61;100208.50;6121326;23;19921;-91
2022/05/06 01:05:45;;;;;;;;;;;;;;;13.64;92.01;100209.28;6096081;23;20371;-91
2022/05/06 01:08:11;;;;;;;;;;;;;;;13.67;90.93;100211.91;6073171;23;19917;-90
2022/05/06 01:10:37;;;;;;;;;;;;;;;13.71;90.56;100206.25;6097090;23;19915;-85
2022/05/06 01:13:02;;;;;;;;;;;;;;;13.71;90.16;100206.25;6095601;23;19913;-90
2022/05/06 01:15:29;;;;;;;;;;;;;;;13.71;91.38;100209.03;6097826;23;19955;-89
2022/05/06 01:18:00;;;;;;;;;;;;;;;13.77;90.49;100205.19;6074331;23;20267;-90
2022/05/06 01:20:26;;;;;;;;;;;;;;;13.79;91.20;100207.53;6072891;23;20323;-91
2022/05/06 01:22:58;;;;;;;;;;;;;;;13.81;91.29;100197.47;6073209;23;19912;-90
2022/05/06 01:25:24;;;;;;;;;;;;;;;13.85;90.58;100198.13;6073948;23;20407;-91
2022/05/06 01:28:00;;;;;;;;;;;;;;;13.77;92.29;100196.81;6096455;23;19916;-85
2022/05/06 01:30:29;;;;;;;;;;;;;;;13.70;92.67;100196.31;6051573;23;19913;-85
2022/05/06 01:32:55;;;;;;;;;;;;;;;13.68;92.59;100199.53;6071937;23;19955;-85
2022/05/06 01:35:20;;;;;;;;;;;;;;;13.69;93.11;100194.75;6071762;23;19909;-85
2022/05/06 01:37:46;;;;;;;;;;;;;;;13.61;94.14;100191.44;6097522;23;19977;-84
2022/05/06 01:40:11;;;;;;;;;;;;;;;13.62;93.38;100193.00;6096303;23;19912;-85
2022/05/06 01:42:38;;;;;;;;;;;;;;;13.64;93.57;100187.75;6047812;23;20327;-85
2022/05/06 01:45:07;;;;;;;;;;;;;;;13.63;93.60;100196.59;6050114;23;19920;-85
2022/05/06 01:47:32;;;;;;;;;;;;;;;13.53;93.60;100184.59;6072372;23;19917;-89
2022/05/06 01:50:03;;;;;;;;;;;;;;;13.58;93.30;100192.38;6072584;23;19996;-89
2022/05/06 01:52:31;;;;;;;;;;;;;;;13.55;93.69;100185.66;6074716;23;19917;-89
2022/05/06 01:54:56;;;;;;;;;;;;;;;13.58;93.07;100191.59;6098724;23;19923;-90
2022/05/06 01:57:22;;;;;;;;;;;;;;;13.55;92.65;100184.88;6074050;23;19988;-90
2022/05/06 01:59:47;;;;;;;;;;;;;;;13.52;93.58;100188.59;6099091;23;20297;-89
2022/05/06 02:02:16;;;;;;;;;;;;;;;13.52;93.87;100191.38;6049837;23;19917;-90
2022/05/06 02:07:31;;;;;;;;;;;;;;;13.55;93.17;100177.31;6103940;23;20346;-90
2022/05/06 02:09:57;;;;;;;;;;;;;;;13.58;92.52;100194.38;6097670;23;19912;-85
2022/05/06 02:12:25;;;;;;;;;;;;;;;13.54;92.29;100195.28;6075138;23;20603;-86
2022/05/06 02:15:04;;;;;;;;;;;;;;;13.53;92.57;100192.94;6122574;23;19921;-85
2022/05/06 02:17:41;;;;;;;;;;;;;;;13.57;92.85;100190.81;6099637;23;20299;-85
2022/05/06 02:20:37;;;;;;;;;;;;;;;13.63;91.63;100186.19;6052852;23;20344;-85
2022/05/06 02:23:25;;;;;;;;;;;;;;;13.65;91.06;100192.09;6109088;23;20233;-85
2022/05/06 02:26:17;;;;;;;;;;;;;;;13.63;91.87;100191.00;6102851;23;19940;-86
2022/05/06 02:28:49;;;;;;;;;;;;;;;13.57;91.75;100185.22;6122405;23;20187;-85
2022/05/06 02:33:58;;;;;;;;;;;;;;;13.61;90.58;100193.47;6102314;23;19920;-84
2022/05/06 02:36:28;;;;;;;;;;;;;;;13.59;91.13;100190.34;6099201;23;19917;-85
2022/05/06 02:38:53;;;;;;;;;;;;;;;13.55;91.35;100185.66;6072449;23;20350;-85
2022/05/06 02:41:19;;;;;;;;;;;;;;;13.53;91.47;100188.16;6074624;23;20247;-85
2022/05/06 02:43:53;;;;;;;;;;;;;;;13.48;92.52;100182.38;6122832;23;19913;-84
2022/05/06 02:46:20;;;;;;;;;;;;;;;13.46;92.96;100182.06;6122274;23;19937;-85
2022/05/06 02:48:47;;;;;;;;;;;;;;;13.48;92.35;100185.16;6074284;23;19988;-85
2022/05/06 02:51:15;;;;;;;;;;;;;;;13.47;93.59;100183.59;6122347;23;19913;-85
2022/05/06 02:53:43;;;;;;;;;;;;;;;13.37;94.36;100179.97;6120929;23;20332;-85
2022/05/06 02:56:09;;;;;;;;;;;;;;;13.38;94.73;100186.34;6073903;23;19921;-85
2022/05/06 02:58:47;;;;;;;;;;;;;;;13.34;94.97;100182.91;6100995;23;19951;-85
2022/05/06 03:01:15;;;;;;;;;;;;;;;13.37;93.93;100176.41;6097534;23;20004;-85
2022/05/06 03:03:43;;;;;;;;;;;;;;;13.40;93.59;100172.72;6097338;23;20244;-85
2022/05/06 03:06:15;;;;;;;;;;;;;;;13.38;93.93;100183.53;6123024;23;20570;-89
2022/05/06 03:08:41;;;;;;;;;;;;;;;13.37;93.77;100185.56;6073676;23;19952;-85
2022/05/06 03:11:07;;;;;;;;;;;;;;;13.40;93.78;100179.06;6073677;23;19908;-85
2022/05/06 03:13:40;;;;;;;;;;;;;;;13.40;94.61;100183.84;6122341;23;19913;-85
2022/05/06 03:16:09;;;;;;;;;;;;;;;13.41;92.71;100185.41;6073853;23;19920;-85
2022/05/06 03:18:35;;;;;;;;;;;;;;;13.41;91.79;100175.06;6097592;23;19960;-85
2022/05/06 03:21:00;;;;;;;;;;;;;;;13.42;90.99;100186.97;6074102;23;20255;-85
2022/05/06 03:23:26;;;;;;;;;;;;;;;13.42;89.77;100182.19;6072740;23;19944;-85
2022/05/06 03:25:51;;;;;;;;;;;;;;;13.43;89.90;100188.53;6121929;23;19909;-89
2022/05/06 03:28:17;;;;;;;;;;;;;;;13.45;90.31;100180.50;6122500;23;19913;-91
2022/05/06 03:30:47;;;;;;;;;;;;;;;13.48;91.21;100193.53;6073122;23;20287;-90
2022/05/06 03:33:33;;;;;;;;;;;;;;;13.50;90.54;100185.50;6101817;23;19919;-89
2022/05/06 03:36:06;;;;;;;;;;;;;;;13.50;91.02;100188.28;6098000;23;19944;-89
2022/05/06 03:38:38;;;;;;;;;;;;;;;13.54;91.60;100194.50;6075331;23;19917;-90
2022/05/06 03:41:03;;;;;;;;;;;;;;;13.53;91.89;100182.56;6121991;23;19924;-90
2022/05/06 03:43:29;;;;;;;;;;;;;;;13.55;91.96;100184.88;6122815;23;19915;-89
2022/05/06 03:46:02;;;;;;;;;;;;;;;13.58;91.35;100180.44;6120049;23;19913;-89
2022/05/06 03:48:27;;;;;;;;;;;;;;;13.54;91.75;100178.56;6073779;23;19928;-90
2022/05/06 03:53:42;;;;;;;;;;;;;;;13.52;91.95;100185.81;6099322;23;20418;-87
2022/05/06 03:56:08;;;;;;;;;;;;;;;13.55;90.86;100187.69;6121657;23;19944;-87
2022/05/06 03:58:39;;;;;;;;;;;;;;;13.57;92.25;100182.44;6075734;23;19917;-87
2022/05/06 04:01:08;;;;;;;;;;;;;;;13.45;94.67;100186.06;6073591;23;20346;-89
2022/05/06 04:03:34;;;;;;;;;;;;;;;13.36;95.62;100194.34;6073315;23;20291;-85
2022/05/06 04:06:00;;;;;;;;;;;;;;;13.28;96.33;100195.84;6048808;23;19912;-85
2022/05/06 04:08:27;;;;;;;;;;;;;;;13.35;96.36;100190.00;6072486;23;19939;-85
2022/05/06 04:10:52;;;;;;;;;;;;;;;13.40;95.13;100189.44;6097318;23;19909;-87
2022/05/06 04:13:19;;;;;;;;;;;;;;;13.46;94.95;100199.56;6097222;23;19923;-85
2022/05/06 04:15:46;;;;;;;;;;;;;;;13.53;94.90;100192.94;6096253;23;19913;-85
2022/05/06 04:18:14;;;;;;;;;;;;;;;13.51;95.92;100195.38;6096944;23;19988;-85
2022/05/06 04:23:29;;;;;;;;;;;;;;;13.49;95.72;100197.88;6076751;23;19921;-88
2022/05/06 04:26:05;;;;;;;;;;;;;;;13.54;95.03;100197.28;6073106;23;19949;-89
2022/05/06 04:28:33;;;;;;;;;;;;;;;13.57;94.49;100209.53;6050857;23;19951;-88
2022/05/06 04:31:02;;;;;;;;;;;;;;;13.56;95.26;100208.75;6073302;23;19944;-90
2022/05/06 04:33:30;;;;;;;;;;;;;;;13.58;94.92;100200.72;6073746;23;20003;-88
2022/05/06 04:35:57;;;;;;;;;;;;;;;13.64;94.72;100209.28;6097952;23;19944;-88
2022/05/06 04:38:28;;;;;;;;;;;;;;;13.68;94.25;100213.47;6050010;23;19913;-88
2022/05/06 04:40:58;;;;;;;;;;;;;;;13.71;94.95;100217.41;6051539;23;19920;-85
2022/05/06 04:43:26;;;;;;;;;;;;;;;13.64;95.86;100221.19;6092757;23;19917;-85
2022/05/06 04:45:53;;;;;;;;;;;;;;;13.56;95.73;100214.31;6044119;23;19918;-86
2022/05/06 04:48:21;;;;;;;;;;;;;;;13.62;95.40;100220.09;6046169;23;19912;-86
2022/05/06 04:50:47;;;;;;;;;;;;;;;13.63;95.13;100214.06;6069071;23;19983;-86
2022/05/06 04:53:14;;;;;;;;;;;;;;;13.59;96.61;100207.84;6044430;23;20324;-86
2022/05/06 04:55:41;;;;;;;;;;;;;;;13.63;95.21;100211.28;6069578;23;19923;-86
2022/05/06 04:58:08;;;;;;;;;;;;;;;13.63;95.02;100219.63;6070829;23;19920;-86
2022/05/06 05:00:34;;;;;;;;;;;;;;;13.67;95.48;100220.28;6046793;23;19913;-88
2022/05/06 05:03:00;;;;;;;;;;;;;;;13.65;96.30;100222.75;6070399;23;19920;-88
2022/05/06 05:05:26;;;;;;;;;;;;;;;13.75;96.50;100218.78;6068388;23;19920;-87
2022/05/06 05:07:53;;;;;;;;;;;;;;;13.79;96.79;100216.66;6070906;23;20409;-87
2022/05/06 05:10:20;;;;;;;;;;;;;;;13.88;95.35;100218.72;6095469;23;19924;-87
2022/05/06 05:12:47;;;;;;;;;;;;;;;13.82;95.97;100215.75;6071677;23;19984;-88
2022/05/06 05:15:13;;;;;;;;;;;;;;;13.84;97.52;100218.06;6119383;23;20622;-89
2022/05/06 05:17:39;;;;;;;;;;;;;;;13.91;96.36;100218.59;6070736;23;20657;-89
2022/05/06 05:20:05;;;;;;;;;;;;;;;13.93;95.90;100207.78;6095169;23;19980;-87
2022/05/06 05:22:36;;;;;;;;;;;;;;;13.97;95.62;100216.78;6070645;23;19991;-86
2022/05/06 05:25:05;;;;;;;;;;;;;;;14.00;95.44;100215.06;6071264;23;19909;-87
2022/05/06 05:27:31;;;;;;;;;;;;;;;14.02;95.45;100224.56;6074716;23;20335;-86
2022/05/06 05:29:57;;;;;;;;;;;;;;;14.02;96.13;100227.34;6097036;23;19920;-86
2022/05/06 05:32:22;;;;;;;;;;;;;;;14.06;96.48;100221.63;6074081;23;19998;-85
2022/05/06 05:34:48;;;;;;;;;;;;;;;14.16;95.41;100225.25;6075821;23;19997;-84
2022/05/06 05:37:19;;;;;;;;;;;;;;;14.23;94.96;100222.19;6074608;23;19917;-82
2022/05/06 05:39:45;;;;;;;;;;;;;;;14.31;94.50;100223.47;6099014;23;19963;-83
2022/05/06 05:42:11;;;;;;;;;;;;;;;14.36;96.73;100225.69;6075575;23;19991;-83
2022/05/06 05:50:09;;;;;;;;;;;;;;;14.53;95.21;100227.00;6077070;23;19976;-85
2022/05/06 05:52:35;;;;;;;;;;;;;;;14.62;94.83;100232.63;6072567;23;20001;-83
2022/05/06 05:55:01;;;;;;;;;;;;;;;14.75;93.88;100244.47;6122011;23;19969;-83
2022/05/06 05:57:26;;;;;;;;;;;;;;;14.75;93.07;100247.25;6098567;23;20340;-91
2022/05/06 05:59:52;;;;;;;;;;;;;;;14.78;92.96;100260.28;6074680;23;19999;-92
2022/05/06 06:02:19;;;;;;;;;;;;;;;14.80;92.30;100257.78;6100935;23;19916;-92
2022/05/06 06:04:48;;;;;;;;;;;;;;;14.82;91.29;100262.94;6077494;23;19913;-92
2022/05/06 06:07:15;;;;;;;;;;;;;;;14.91;92.52;100258.16;6100220;23;19992;-93
2022/05/06 06:09:45;;;;;;;;;;;;;;;15.02;92.06;100262.53;6051964;23;19995;-93
2022/05/06 06:12:12;;;;;;;;;;;;;;;15.12;91.80;100259.31;6075287;23;19999;-93
2022/05/06 06:14:39;;;;;;;;;;;;;;;15.27;91.35;100260.25;6074708;23;20473;-93
2022/05/06 06:17:04;;;;;;;;;;;;;;;15.35;91.74;100260.72;6049088;23;19913;-83
2022/05/06 06:19:31;;;;;;;;;;;;;;;15.43;90.72;100264.75;6049569;23;19917;-83
2022/05/06 06:21:57;;;;;;;;;;;;;;;15.47;90.60;100259.81;6050049;23;20518;-83
2022/05/06 06:24:30;;;;;;;;;;;;;;;15.68;89.69;100261.72;6075630;23;19964;-83
2022/05/06 06:26:58;;;;;;;;;;;;;;;15.81;87.56;100264.34;6051431;23;19912;-83
2022/05/06 06:29:29;;;;;;;;;;;;;;;15.95;84.83;100268.50;6075340;23;19909;-83
2022/05/06 06:31:57;;;;;;;;;;;;;;;16.08;82.28;100267.09;6099276;23;19952;-83
2022/05/06 06:34:22;;;;;;;;;;;;;;;16.25;81.83;100275.94;6051177;23;19909;-82
2022/05/06 06:36:48;;;;;;;;;;;;;;;16.32;81.25;100270.78;6075171;23;20255;-83
2022/05/06 06:39:14;;;;;;;;;;;;;;;16.40;81.56;100276.81;6074737;23;19941;-83
2022/05/06 06:41:43;;;;;;;;;;;;;;;16.58;81.84;100282.38;6075883;23;19944;-82
2022/05/06 06:44:09;;;;;;;;;;;;;;;16.76;81.16;100282.31;6124956;23;20105;-82
2022/05/06 06:46:55;;;;;;;;;;;;;;;16.88;80.12;100268.56;6103256;23;20323;-83
2022/05/06 06:49:39;;;;;;;;;;;;;;;17.06;79.64;100274.06;6123807;23;19924;-83
2022/05/06 06:52:40;;;;;;;;;;;;;;;17.12;80.06;100264.53;6107211;23;19916;-83
2022/05/06 06:55:05;;;;;;;;;;;;;;;17.17;79.69;100274.31;6099275;23;20346;-84
2022/05/06 06:57:30;;;;;;;;;;;;;;;17.14;78.00;100273.25;6075197;23;19960;-84
2022/05/06 06:59:56;;;;;;;;;;;;;;;17.09;77.53;100270.31;6098883;23;19912;-83
2022/05/06 07:02:21;;;;;;;;;;;;;;;17.10;77.89;100269.06;6074858;23;19913;-83
2022/05/06 07:04:47;;;;;;;;;;;;;;;17.15;78.39;100276.81;6088245;23;20000;-83
2022/05/06 07:12:40;;;;;;;;;;;;;;;17.22;74.50;100256.84;6127288;23;19944;-93
2022/05/06 07:15:06;;;;;;;;;;;;;;;17.29;75.48;100273.31;6126944;23;19916;-83
2022/05/06 07:17:31;;;;;;;;;;;;;;;17.36;75.88;100272.94;6099129;23;19924;-83
2022/05/06 07:19:57;;;;;;;;;;;;;;;17.31;76.13;100279.19;6123198;23;19968;-83
2022/05/06 07:22:22;;;;;;;;;;;;;;;17.44;76.48;100271.31;6123256;23;19955;-83
2022/05/06 07:24:47;;;;;;;;;;;;;;;17.43;76.98;100272.56;6098662;23;19988;-83
2022/05/06 07:27:13;;;;;;;;;;;;;;;17.50;74.22;100266.63;6122905;23;19917;-83
2022/05/06 07:29:39;;;;;;;;;;;;;;;17.44;73.02;100279.72;6123038;23;19913;-83
2022/05/06 07:32:04;;;;;;;;;;;;;;;17.60;72.11;100270.13;6074825;23;19988;-83
2022/05/06 07:34:30;;;;;;;;;;;;;;;17.58;72.24;100279.06;6074666;23;19916;-82
2022/05/06 07:36:55;;;;;;;;;;;;;;;17.66;72.11;100280.22;6098925;23;19912;-83
2022/05/06 07:39:21;;;;;;;;;;;;;;;17.72;71.19;100288.75;6098479;23;19912;-83
2022/05/06 07:41:46;;;;;;;;;;;;;;;17.65;71.43;100294.72;6123237;23;20328;-83
2022/05/06 07:44:12;;;;;;;;;;;;;;;17.71;71.20;100290.75;6098223;23;19971;-83
2022/05/06 07:46:37;;;;;;;;;;;;;;;17.77;72.21;100295.72;6123624;23;19948;-83
2022/05/06 07:49:03;;;;;;;;;;;;;;;17.84;71.92;100289.72;6074096;23;19913;-83
2022/05/06 07:51:29;;;;;;;;;;;;;;;17.87;71.00;100294.41;6075465;23;19932;-93
2022/05/06 07:53:55;;;;;;;;;;;;;;;17.91;71.18;100292.97;6125287;23;19913;-94
2022/05/06 07:56:21;;;;;;;;;;;;;;;17.77;69.79;100290.09;6077346;23;19960;-94
2022/05/06 07:58:47;;;;;;;;;;;;;;;17.74;72.12;100291.84;6100676;23;19919;-95
2022/05/06 08:01:13;;;;;;;;;;;;;;;17.89;71.67;100291.88;6102526;23;19913;-92
2022/05/06 08:06:22;;;;;;;;;;;;;;;17.87;70.42;100297.22;6088020;23;19917;-93
2022/05/06 08:08:48;;;;;;;;;;;;;;;18.05;69.67;100291.41;6086882;23;19995;-93
2022/05/06 08:11:13;;;;;;;;;;;;;;;18.25;69.08;100294.34;6130086;23;19983;-83
2022/05/06 08:13:39;;;;;;;;;;;;;;;18.42;68.15;100303.84;6074139;23;20331;-83
2022/05/06 08:16:04;;;;;;;;;;;;;;;18.56;69.69;100289.03;6098301;23;19913;-83
2022/05/06 08:18:30;;;;;;;;;;;;;;;18.74;67.58;100287.25;6074313;23;19920;-84
2022/05/06 08:20:56;;;;;;;;;;;;;;;18.81;62.85;100292.47;6098306;23;19913;-84
2022/05/06 08:23:22;;;;;;;;;;;;;;;18.86;62.97;100301.00;6049905;23;19919;-84
2022/05/06 08:25:48;;;;;;;;;;;;;;;18.96;64.32;100301.66;6074814;23;19913;-84
2022/05/06 08:28:14;;;;;;;;;;;;;;;18.99;64.99;100295.84;6097836;23;20283;-84
2022/05/06 08:30:40;;;;;;;;;;;;;;;19.07;63.72;100296.22;6099860;23;19917;-84
2022/05/06 08:33:05;;;;;;;;;;;;;;;19.05;64.51;100290.28;6128390;23;19940;-95
2022/05/06 08:35:31;;;;;;;;;;;;;;;19.17;63.83;100297.63;6081861;23;19919;-94
2022/05/06 08:37:57;;;;;;;;;;;;;;;19.26;62.27;100294.69;6130495;23;19915;-95
2022/05/06 08:40:26;;;;;;;;;;;;;;;19.23;62.25;100295.66;6105308;23;19932;-95
2022/05/06 08:42:52;;;;;;;;;;;;;;;19.35;62.01;100297.38;6106428;23;20322;-94
2022/05/06 08:50:53;;;;;;;;;;;;;;;19.55;62.87;100305.06;6107971;23;19920;-95
2022/05/06 08:53:21;;;;;;;;;;;;;;;19.50;62.39;100300.13;6130246;23;20048;-94
2022/05/06 08:55:55;;;;;;;;;;;;;;;19.30;61.13;100306.50;6103603;23;19913;-94
2022/05/06 08:58:22;;;;;;;;;;;;;;;19.28;63.08;100313.88;6103611;23;19913;-94
2022/05/06 09:00:48;;;;;;;;;;;;;;;19.22;64.21;100310.22;6104284;23;19917;-94
2022/05/06 09:03:14;;;;;;;;;;;;;;;19.33;63.83;100310.38;6104004;23;19963;-93
2022/05/06 09:05:49;;;;;;;;;;;;;;;19.32;63.97;100308.81;6129824;23;19917;-94
2022/05/06 09:08:14;;;;;;;;;;;;;;;19.34;63.52;100306.28;6078152;23;19912;-95
2022/05/06 09:10:40;;;;;;;;;;;;;;;19.16;63.68;100312.97;6104130;23;19992;-95
2022/05/06 09:13:05;;;;;;;;;;;;;;;19.34;63.95;100317.53;6104477;23;19913;-94
2022/05/06 09:18:19;;;;;;;;;;;;;;;19.37;64.49;100300.44;6108064;23;19945;-94
2022/05/06 09:20:45;;;;;;;;;;;;;;;19.66;63.62;100293.16;6081822;23;19913;-94
2022/05/06 09:23:24;;;;;;;;;;;;;;;19.85;64.57;100302.88;6081750;23;19987;-95
2022/05/06 09:25:51;;;;;;;;;;;;;;;20.10;64.28;100299.28;6081363;23;19936;-83
2022/05/06 09:28:24;;;;;;;;;;;;;;;20.29;63.57;100294.16;6104193;23;19916;-95
2022/05/06 09:30:59;;;;;;;;;;;;;;;20.53;63.91;100303.06;6078224;23;19936;-95
2022/05/06 09:33:25;;;;;;;;;;;;;;;20.69;60.28;100293.22;6129074;23;20305;-94
2022/05/06 09:35:51;;;;;;;;;;;;;;;20.85;60.37;100301.78;6134973;23;20284;-94
2022/05/06 09:38:16;;;;;;;;;;;;;;;21.02;59.31;100298.31;6082878;23;19920;-95
2022/05/06 09:40:42;;;;;;;;;;;;;;;21.09;58.13;100298.63;6105929;23;19958;-95
2022/05/06 09:43:08;;;;;;;;;;;;;;;21.12;57.58;100292.00;6056863;23;19916;-94
2022/05/06 09:45:34;;;;;;;;;;;;;;;20.93;58.11;100302.88;6051746;23;19957;-83
2022/05/06 09:48:00;;;;;;;;;;;;;;;21.08;58.28;100291.44;6074231;23;19952;-83
2022/05/06 09:50:36;;;;;;;;;;;;;;;21.10;58.48;100305.81;6097439;23;19963;-83
2022/05/06 09:53:08;;;;;;;;;;;;;;;21.09;56.47;100304.25;6050302;23;20012;-83
2022/05/06 09:55:38;;;;;;;;;;;;;;;21.02;57.03;100304.72;6049709;23;19917;-84
2022/05/06 09:58:03;;;;;;;;;;;;;;;21.17;57.89;100299.72;6073939;23;19935;-83
2022/05/06 10:00:29;;;;;;;;;;;;;;;21.30;56.75;100307.75;6097230;23;20273;-83
2022/05/06 10:02:54;;;;;;;;;;;;;;;21.50;56.02;100301.19;6074100;23;20302;-83
2022/05/06 10:05:20;;;;;;;;;;;;;;;21.64;56.33;100294.53;6117879;23;19920;-95
2022/05/06 10:07:46;;;;;;;;;;;;;;;21.61;56.47;100298.41;6130738;23;19952;-95
2022/05/06 10:10:21;;;;;;;;;;;;;;;21.78;55.98;100302.06;6130251;23;19916;-95
2022/05/06 10:12:52;;;;;;;;;;;;;;;22.02;54.86;100299.59;6131020;23;19999;-95
2022/05/06 10:15:19;;;;;;;;;;;;;;;22.20;54.86;100296.28;6107352;23;19913;-94
2022/05/06 10:17:48;;;;;;;;;;;;;;;22.27;54.57;100284.50;6083240;23;19936;-94
2022/05/06 10:20:32;;;;;;;;;;;;;;;22.36;55.98;100299.66;6107082;23;19920;-93
2022/05/06 10:22:58;;;;;;;;;;;;;;;22.23;55.85;100283.97;6134766;23;19917;-95
2022/05/06 10:25:42;;;;;;;;;;;;;;;22.13;55.85;100284.72;6132113;23;19913;-95
2022/05/06 10:34:07;;;;;;;;;;;;;;;21.72;56.92;100281.50;6128955;23;19923;-95
2022/05/06 10:36:53;;;;;;;;;;;;;;;21.83;57.11;100287.19;6128470;23;19913;-94
2022/05/06 10:39:18;;;;;;;;;;;;;;;21.89;56.88;100279.50;6102643;23;19913;-95
2022/05/06 10:42:02;;;;;;;;;;;;;;;21.85;57.22;100273.31;6127199;23;19971;-94
2022/05/06 10:44:41;;;;;;;;;;;;;;;21.80;57.79;100271.25;6127475;23;20302;-94
2022/05/06 10:47:16;;;;;;;;;;;;;;;21.86;58.14;100272.81;6129198;23;20340;-95
2022/05/06 10:49:48;;;;;;;;;;;;;;;21.93;57.46;100271.56;6130230;23;19928;-95
2022/05/06 10:52:13;;;;;;;;;;;;;;;22.03;56.73;100264.44;6128089;23;20044;-94
2022/05/06 10:55:10;;;;;;;;;;;;;;;21.87;55.72;100267.94;6125225;23;19947;-94
2022/05/06 10:57:49;;;;;;;;;;;;;;;21.86;57.16;100260.75;6072671;23;19919;-95
2022/05/06 11:00:14;;;;;;;;;;;;;;;21.90;58.00;100264.09;6101309;23;19924;-95
2022/05/06 11:02:42;;;;;;;;;;;;;;;21.72;58.49;100261.72;6125429;23;20243;-94
2022/05/06 11:05:08;;;;;;;;;;;;;;;21.74;58.67;100256.34;6077058;23;20010;-94
2022/05/06 11:07:38;;;;;;;;;;;;;;;21.99;58.45;100255.44;6125609;23;19917;-94
2022/05/06 11:10:11;;;;;;;;;;;;;;;22.17;56.61;100237.19;6125162;23;19913;-95
2022/05/06 11:12:41;;;;;;;;;;;;;;;22.20;57.36;100253.16;6100986;23;19912;-94
2022/05/06 11:15:16;;;;;;;;;;;;;;;22.37;56.41;100250.31;6125706;23;19932;-96
2022/05/06 11:17:45;;;;;;;;;;;;;;;22.67;57.08;100248.50;6101011;23;19940;-95
2022/05/06 11:20:23;;;;;;;;;;;;;;;22.68;55.08;100247.22;6100843;23;20040;-95
2022/05/06 11:22:52;;;;;;;;;;;;;;;22.90;55.17;100244.38;6097807;23;19940;-83
2022/05/06 11:25:18;;;;;;;;;;;;;;;23.05;55.00;100242.03;6097314;23;20320;-84
2022/05/06 11:27:44;;;;;;;;;;;;;;;22.67;55.12;100245.69;6121605;23;20066;-83
2022/05/06 11:30:16;;;;;;;;;;;;;;;22.72;55.10;100240.06;6121736;23;20333;-84
2022/05/06 11:32:45;;;;;;;;;;;;;;;22.84;55.24;100257.78;6097838;23;19940;-83
2022/05/06 11:35:11;;;;;;;;;;;;;;;22.86;54.17;100252.38;6097428;23;19971;-83
2022/05/06 11:37:40;;;;;;;;;;;;;;;22.76;55.47;100242.63;6097805;23;20332;-83
2022/05/06 11:42:50;;;;;;;;;;;;;;;22.36;56.23;100240.31;6099410;23;19944;-84
2022/05/06 11:48:06;;;;;;;;;;;;;;;22.20;56.78;100242.59;6099906;23;20327;-84
2022/05/06 11:50:35;;;;;;;;;;;;;;;22.45;55.74;100234.38;6070765;23;19912;-83
2022/05/06 11:53:05;;;;;;;;;;;;;;;22.40;54.14;100240.81;6121498;23;19933;-83
2022/05/06 11:55:30;;;;;;;;;;;;;;;22.67;53.23;100240.03;6121132;23;19913;-83
2022/05/06 11:57:59;;;;;;;;;;;;;;;22.81;53.83;100236.16;6097120;23;19913;-83
2022/05/06 12:00:25;;;;;;;;;;;;;;;22.84;53.72;100215.34;6121031;23;19916;-83
2022/05/06 12:02:51;;;;;;;;;;;;;;;22.85;53.83;100230.28;6121373;23;19916;-83
2022/05/06 12:05:16;;;;;;;;;;;;;;;22.98;53.21;100213.50;6121062;23;19917;-83
2022/05/06 12:07:45;;;;;;;;;;;;;;;23.00;49.88;100217.38;6123226;23;19920;-84
2022/05/06 12:10:13;;;;;;;;;;;;;;;23.01;50.31;100218.88;6121029;23;19967;-84
2022/05/06 12:12:58;;;;;;;;;;;;;;;23.04;50.11;100217.88;6121141;23;19936;-83
2022/05/06 12:15:39;;;;;;;;;;;;;;;23.07;50.98;100216.84;6096930;23;19963;-84
2022/05/06 12:18:05;;;;;;;;;;;;;;;23.24;48.79;100211.88;6121812;23;20241;-93
2022/05/06 12:20:34;;;;;;;;;;;;;;;23.17;48.78;100203.91;6124776;23;20355;-95
2022/05/06 12:23:00;;;;;;;;;;;;;;;23.03;48.86;100209.91;6125187;23;19944;-95
2022/05/06 12:25:25;;;;;;;;;;;;;;;23.05;48.31;100207.34;6075852;23;19988;-96
2022/05/06 12:28:03;;;;;;;;;;;;;;;23.16;48.99;100204.47;6124455;23;19916;-95
2022/05/06 12:30:29;;;;;;;;;;;;;;;23.08;49.45;100206.28;6125402;23;20040;-95
2022/05/06 12:33:22;;;;;;;;;;;;;;;23.17;48.05;100209.56;6123654;23;19921;-94
2022/05/06 12:35:55;;;;;;;;;;;;;;;22.97;47.14;100198.59;6119553;23;19917;-96
2022/05/06 12:38:21;;;;;;;;;;;;;;;23.36;46.90;100203.34;6098449;23;19912;-83
2022/05/06 12:40:47;;;;;;;;;;;;;;;23.61;48.26;100203.00;6123033;23;19920;-96
2022/05/06 12:43:13;;;;;;;;;;;;;;;23.90;47.59;100195.09;6126352;23;19913;-94
2022/05/06 12:45:50;;;;;;;;;;;;;;;23.96;43.00;100199.41;6100894;23;19956;-94
2022/05/06 12:51:00;;;;;;;;;;;;;;;23.81;44.74;100198.25;6103624;23;19916;-95
2022/05/06 12:53:27;;;;;;;;;;;;;;;23.80;45.65;100188.97;6099907;23;20007;-95
2022/05/06 12:55:52;;;;;;;;;;;;;;;23.97;44.91;100183.19;6125475;23;20485;-94
2022/05/06 12:58:17;;;;;;;;;;;;;;;24.06;44.77;100180.78;6121271;23;20289;-83
2022/05/06 13:00:44;;;;;;;;;;;;;;;24.00;45.21;100177.22;6121195;23;19920;-83
2022/05/06 13:03:09;;;;;;;;;;;;;;;23.78;46.25;100180.22;6096519;23;19917;-83
2022/05/06 13:05:35;;;;;;;;;;;;;;;23.69;45.18;100180.53;6120623;23;19913;-83
2022/05/06 13:08:06;;;;;;;;;;;;;;;23.66;45.99;100178.75;6097120;23;19913;-83
2022/05/06 13:10:31;;;;;;;;;;;;;;;23.51;46.69;100181.94;6097317;23;19917;-83
2022/05/06 13:12:59;;;;;;;;;;;;;;;23.40;47.76;100175.53;6096821;23;20350;-83
2022/05/06 13:15:24;;;;;;;;;;;;;;;23.37;47.71;100179.41;6073582;23;20152;-83
2022/05/06 13:17:50;;;;;;;;;;;;;;;23.42;47.85;100173.72;6073496;23;19917;-95
2022/05/06 13:20:15;;;;;;;;;;;;;;;23.41;47.41;100168.59;6124411;23;19916;-94
2022/05/06 13:22:40;;;;;;;;;;;;;;;23.58;47.73;100177.75;6126148;23;20007;-94
2022/05/06 13:25:06;;;;;;;;;;;;;;;23.70;46.31;100176.41;6124966;23;19913;-96
2022/05/06 13:27:31;;;;;;;;;;;;;;;23.73;48.02;100175.38;6124456;23;19912;-95